createdAt,value
2023-05-20T00:01:12.517Z,102342.72
2023-05-20T00:03:46.400Z,102384.16
2023-05-20T00:06:36.314Z,102347.78
2023-05-20T00:09:10.254Z,102368.59
2023-05-20T00:11:44.237Z,102363.34
2023-05-20T00:14:18.367Z,102361.81
2023-05-20T00:16:45.343Z,102371.47
2023-05-20T00:19:18.336Z,102345.13
2023-05-20T00:21:45.343Z,102365.00
2023-05-20T00:24:19.456Z,102357.03
2023-05-20T00:26:46.452Z,102344.94
2023-05-20T00:29:20.309Z,102352.97
2023-05-20T00:31:47.535Z,102353.69
2023-05-20T00:34:21.256Z,102353.03
2023-05-20T00:36:48.300Z,102376.34
2023-05-20T00:39:28.319Z,102350.09
2023-05-20T00:42:10.595Z,102365.38
2023-05-20T00:44:37.566Z,102357.72
2023-05-20T00:47:11.477Z,102346.88
2023-05-20T00:49:38.670Z,102346.88
2023-05-20T00:52:13.300Z,102346.78
2023-05-20T00:54:41.544Z,102357.09
2023-05-20T00:57:16.289Z,102322.31
2023-05-20T00:59:44.744Z,102341.63
2023-05-20T01:02:18.310Z,102342.47
2023-05-20T01:04:48.691Z,102340.56
2023-05-20T01:07:24.346Z,102345.13
2023-05-20T01:09:52.845Z,102345.91
2023-05-20T01:12:46.372Z,102362.16
2023-05-20T01:15:16.489Z,102359.47
2023-05-20T01:17:58.386Z,102356.34
2023-05-20T01:20:26.357Z,102332.75
2023-05-20T01:23:04.415Z,102334.28
2023-05-20T01:25:38.432Z,102323.09
2023-05-20T01:28:12.283Z,102327.59
2023-05-20T01:30:46.299Z,102342.31
2023-05-20T01:33:22.351Z,102340.41
2023-05-20T01:35:56.367Z,102344.69
2023-05-20T01:38:38.380Z,102361.28
2023-05-20T01:41:13.329Z,102359.38
2023-05-20T01:43:47.362Z,102327.78
2023-05-20T01:46:22.524Z,102328.53
2023-05-20T01:48:56.317Z,102345.66
2023-05-20T01:51:30.357Z,102349.16
2023-05-20T01:54:04.452Z,102335.69
2023-05-20T01:56:38.375Z,102350.56
2023-05-20T01:59:06.044Z,102318.22
2023-05-20T02:01:40.294Z,102307.13
2023-05-20T02:04:07.829Z,102352.53
2023-05-20T02:06:46.440Z,102322.66
2023-05-20T02:09:13.863Z,102333.72
2023-05-20T02:11:47.373Z,102332.56
2023-05-20T02:14:14.598Z,102296.56
2023-05-20T02:16:48.436Z,102295.88
2023-05-20T02:19:24.094Z,102319.41
2023-05-20T02:22:00.355Z,102330.38
2023-05-20T02:24:27.701Z,102309.84
2023-05-20T02:27:02.421Z,102326.59
2023-05-20T02:29:36.330Z,102308.63
2023-05-20T02:32:03.896Z,102331.44
2023-05-20T02:34:38.489Z,102325.50
2023-05-20T02:37:05.683Z,102307.97
2023-05-20T02:39:46.457Z,102337.38
2023-05-20T02:42:13.918Z,102320.09
2023-05-20T02:44:48.417Z,102315.88
2023-05-20T02:47:15.373Z,102314.28
2023-05-20T02:49:42.813Z,102295.59
2023-05-20T02:52:16.526Z,102299.44
2023-05-20T02:54:50.305Z,102310.75
2023-05-20T02:57:17.487Z,102293.59
2023-05-20T02:59:47.540Z,102312.34
2023-05-20T03:02:21.518Z,102309.09
2023-05-20T03:04:49.032Z,102299.97
2023-05-20T03:07:26.350Z,102314.59
2023-05-20T03:09:59.443Z,102324.91
2023-05-20T03:12:33.466Z,102311.06
2023-05-20T03:15:01.472Z,102308.78
2023-05-20T03:17:35.620Z,102312.19
2023-05-20T03:20:04.249Z,102327.34
2023-05-20T03:22:38.450Z,102316.28
2023-05-20T03:25:15.550Z,102331.06
2023-05-20T03:27:49.451Z,102313.09
2023-05-20T03:30:19.953Z,102332.78
2023-05-20T03:32:53.530Z,102338.88
2023-05-20T03:35:20.948Z,102315.69
2023-05-20T03:38:01.397Z,102319.94
2023-05-20T03:40:35.900Z,102333.91
2023-05-20T03:43:12.545Z,102302.84
2023-05-20T03:45:39.873Z,102325.63
2023-05-20T03:48:13.577Z,102303.53
2023-05-20T03:50:47.131Z,102327.59
2023-05-20T03:53:21.481Z,102315.78
2023-05-20T03:55:48.714Z,102329.50
2023-05-20T03:58:16.247Z,102309.69
2023-05-20T04:00:50.404Z,102324.56
2023-05-20T04:03:18.322Z,102306.41
2023-05-20T04:05:52.449Z,102327.16
2023-05-20T04:08:19.908Z,102312.53
2023-05-20T04:10:57.696Z,102349.06
2023-05-20T04:13:26.248Z,102325.53
2023-05-20T04:16:00.422Z,102311.66
2023-05-20T04:18:36.411Z,102331.28
2023-05-20T04:21:03.703Z,102311.44
2023-05-20T04:23:37.393Z,102331.19
2023-05-20T04:26:08.011Z,102318.63
2023-05-20T04:28:41.485Z,102325.53
2023-05-20T04:31:09.112Z,102320.19
2023-05-20T04:33:45.522Z,102327.94
2023-05-20T04:36:16.785Z,102330.19
2023-05-20T04:38:51.443Z,102313.59
2023-05-20T04:41:24.774Z,102314.19
2023-05-20T04:44:06.438Z,102344.06
2023-05-20T04:46:35.753Z,102326.84
2023-05-20T04:49:11.561Z,102324.34
2023-05-20T04:51:40.694Z,102339.53
2023-05-20T04:54:14.479Z,102311.38
2023-05-20T04:56:41.712Z,102335.06
2023-05-20T04:59:18.456Z,102356.66
2023-05-20T05:01:45.565Z,102320.16
2023-05-20T05:04:12.827Z,102339.19
2023-05-20T05:06:46.533Z,102350.22
2023-05-20T05:09:20.440Z,102323.38
2023-05-20T05:11:54.543Z,102340.91
2023-05-20T05:14:21.561Z,102326.63
2023-05-20T05:16:55.753Z,102327.41
2023-05-20T05:19:23.284Z,102352.66
2023-05-20T05:21:57.447Z,102346.88
2023-05-20T05:24:24.777Z,102345.47
2023-05-20T05:27:01.444Z,102319.06
2023-05-20T05:29:28.534Z,102313.38
2023-05-20T05:32:02.711Z,102318.09
2023-05-20T05:34:36.473Z,102325.56
2023-05-20T05:37:10.586Z,102318.56
2023-05-20T05:39:50.463Z,102321.56
2023-05-20T05:42:24.525Z,102336.66
2023-05-20T05:45:01.428Z,102315.75
2023-05-20T05:47:32.792Z,102315.97
2023-05-20T05:50:12.429Z,102314.63
2023-05-20T05:52:39.891Z,102310.63
2023-05-20T05:55:14.634Z,102306.91
2023-05-20T05:57:42.128Z,102320.47
2023-05-20T06:00:18.244Z,102306.53
2023-05-20T06:02:57.544Z,102323.19
2023-05-20T06:05:27.553Z,102342.53
2023-05-20T06:08:02.730Z,102348.47
2023-05-20T06:10:33.826Z,102345.38
2023-05-20T06:13:11.649Z,102345.00
2023-05-20T06:15:50.046Z,102338.97
2023-05-20T06:18:24.686Z,102321.38
2023-05-20T06:21:01.762Z,102311.47
2023-05-20T06:23:37.632Z,102334.13
2023-05-20T06:26:11.929Z,102302.19
2023-05-20T06:28:49.809Z,102318.09
2023-05-20T06:31:23.657Z,102301.84
2023-05-20T06:33:57.464Z,102337.03
2023-05-20T06:36:24.776Z,102304.47
2023-05-20T06:38:58.488Z,102287.78
2023-05-20T06:41:39.349Z,102301.63
2023-05-20T06:44:17.422Z,102294.38
2023-05-20T06:46:51.539Z,102288.50
2023-05-20T06:49:25.573Z,102298.38
2023-05-20T06:51:53.074Z,102293.16
2023-05-20T06:54:26.566Z,102295.31
2023-05-20T06:57:00.486Z,102286.09
2023-05-20T06:59:34.668Z,102290.38
2023-05-20T07:02:02.249Z,102279.38
2023-05-20T07:04:41.813Z,102276.69
2023-05-20T07:07:09.608Z,102282.56
2023-05-20T07:09:43.521Z,102273.25
2023-05-20T07:12:17.667Z,102289.94
2023-05-20T07:14:45.169Z,102282.00
2023-05-20T07:17:18.547Z,102266.00
2023-05-20T07:19:45.586Z,102273.31
2023-05-20T07:22:19.672Z,102264.16
2023-05-20T07:24:47.010Z,102297.38
2023-05-20T07:27:21.805Z,102280.84
2023-05-20T07:29:55.568Z,102278.59
2023-05-20T07:32:31.901Z,102284.03
2023-05-20T07:34:58.797Z,102264.28
2023-05-20T07:37:35.492Z,102273.13
2023-05-20T07:40:10.209Z,102257.03
2023-05-20T07:42:44.590Z,102279.56
2023-05-20T07:45:12.189Z,102256.84
2023-05-20T07:47:45.974Z,102280.00
2023-05-20T07:50:13.344Z,102249.50
2023-05-20T07:52:56.582Z,102243.63
2023-05-20T07:55:30.563Z,102261.41
2023-05-20T07:57:58.057Z,102248.78
2023-05-20T08:00:31.800Z,102234.91
2023-05-20T08:02:58.950Z,102236.13
2023-05-20T08:05:39.352Z,102248.41
2023-05-20T08:08:12.504Z,102254.28
2023-05-20T08:10:46.550Z,102249.13
2023-05-20T08:13:13.761Z,102244.13
2023-05-20T08:15:47.593Z,102233.75
2023-05-20T08:18:17.216Z,102243.72
2023-05-20T08:20:50.554Z,102229.91
2023-05-20T08:23:19.807Z,102233.53
2023-05-20T08:25:56.602Z,102224.00
2023-05-20T08:28:24.017Z,102246.38
2023-05-20T08:30:58.539Z,102243.28
2023-05-20T08:33:25.637Z,102246.22
2023-05-20T08:35:59.523Z,102223.66
2023-05-20T08:38:34.021Z,102252.06
2023-05-20T08:41:14.544Z,102235.88
2023-05-20T08:43:49.640Z,102246.69
2023-05-20T08:46:18.530Z,102233.72
2023-05-20T08:48:52.618Z,102239.59
2023-05-20T08:51:23.785Z,102231.28
2023-05-20T08:54:00.576Z,102234.75
2023-05-20T08:56:30.145Z,102222.31
2023-05-20T08:59:04.545Z,102211.53
2023-05-20T09:01:37.721Z,102227.94
2023-05-20T09:04:11.563Z,102225.63
2023-05-20T09:06:48.198Z,102219.88
2023-05-20T09:09:21.536Z,102214.84
2023-05-20T09:11:48.702Z,102216.63
2023-05-20T09:14:22.693Z,102224.09
2023-05-20T09:16:56.511Z,102217.06
2023-05-20T09:19:24.801Z,102216.06
2023-05-20T09:22:00.607Z,102213.03
2023-05-20T09:24:33.530Z,102201.03
2023-05-20T09:27:00.602Z,102213.13
2023-05-20T09:29:33.602Z,102203.97
2023-05-20T09:32:09.601Z,102216.94
2023-05-20T09:34:37.168Z,102189.34
2023-05-20T09:37:14.502Z,102197.44
2023-05-20T09:40:01.556Z,102205.19
2023-05-20T09:42:42.600Z,102196.94
2023-05-20T09:45:09.885Z,102207.00
2023-05-20T09:47:46.576Z,102206.09
2023-05-20T09:50:21.585Z,102198.59
2023-05-20T09:52:50.454Z,102212.69
2023-05-20T09:55:25.630Z,102195.00
2023-05-20T09:57:54.984Z,102199.94
2023-05-20T10:00:28.617Z,102203.22
2023-05-20T10:02:55.936Z,102189.25
2023-05-20T10:05:50.634Z,102190.31
2023-05-20T10:08:47.656Z,102203.84
2023-05-20T10:11:40.608Z,102181.56
2023-05-20T10:14:19.504Z,102189.28
2023-05-20T10:16:58.648Z,102182.34
2023-05-20T10:19:37.538Z,102162.69
2023-05-20T10:22:13.649Z,102171.59
2023-05-20T10:24:44.706Z,102164.22
2023-05-20T10:27:24.574Z,102160.44
2023-05-20T10:29:57.537Z,102166.16
2023-05-20T10:32:38.795Z,102140.97
2023-05-20T10:35:13.014Z,102161.91
2023-05-20T10:37:51.612Z,102146.31
2023-05-20T10:40:29.640Z,102119.34
2023-05-20T10:43:07.677Z,102147.38
2023-05-20T10:45:43.664Z,102144.25
2023-05-20T10:48:27.620Z,102146.84
2023-05-20T10:51:00.200Z,102124.16
2023-05-20T10:53:34.859Z,102150.53
2023-05-20T10:56:09.597Z,102129.50
2023-05-20T10:58:46.620Z,102135.84
2023-05-20T11:01:16.895Z,102126.25
2023-05-20T11:03:51.652Z,102119.69
2023-05-20T11:06:25.622Z,102121.13
2023-05-20T11:08:52.414Z,102120.19
2023-05-20T11:11:25.815Z,102120.25
2023-05-20T11:13:59.617Z,102114.34
2023-05-20T11:16:33.638Z,102117.16
2023-05-20T11:19:06.677Z,102126.28
2023-05-20T11:21:40.693Z,102113.16
2023-05-20T11:24:16.057Z,102102.69
2023-05-20T11:26:42.932Z,102107.72
2023-05-20T11:29:16.697Z,102101.56
2023-05-20T11:31:49.626Z,102083.16
2023-05-20T11:34:26.426Z,102099.16
2023-05-20T11:37:05.628Z,102101.66
2023-05-20T11:39:53.250Z,102101.88
2023-05-20T11:42:28.671Z,102084.19
2023-05-20T11:44:55.744Z,102088.19
2023-05-20T11:47:27.947Z,102067.84
2023-05-20T11:50:03.685Z,102088.53
2023-05-20T11:52:30.641Z,102082.13
2023-05-20T11:55:03.654Z,102088.97
2023-05-20T11:57:38.630Z,102060.97
2023-05-20T12:00:08.063Z,102074.94
2023-05-20T12:02:41.741Z,102066.13
2023-05-20T12:05:15.836Z,102063.13
2023-05-20T12:07:43.203Z,102042.78
2023-05-20T12:10:16.797Z,102053.94
2023-05-20T12:12:45.474Z,102063.28
2023-05-20T12:15:19.794Z,102071.56
2023-05-20T12:17:55.659Z,102071.50
2023-05-20T12:20:31.706Z,102057.81
2023-05-20T12:22:59.225Z,102062.25
2023-05-20T12:25:32.653Z,102057.25
2023-05-20T12:28:10.774Z,102064.19
2023-05-20T12:30:37.945Z,102049.97
2023-05-20T12:33:11.736Z,102058.28
2023-05-20T12:35:40.565Z,102039.56
2023-05-20T12:38:14.732Z,102020.63
2023-05-20T12:40:48.292Z,102035.22
2023-05-20T12:43:21.721Z,102042.19
2023-05-20T12:45:55.693Z,102035.94
2023-05-20T12:48:28.683Z,102046.13
2023-05-20T12:50:55.640Z,102029.25
2023-05-20T12:53:28.716Z,102035.34
2023-05-20T12:55:55.794Z,102031.16
2023-05-20T12:58:29.675Z,102018.94
2023-05-20T13:01:02.876Z,102019.63
2023-05-20T13:03:36.694Z,102011.59
2023-05-20T13:06:04.559Z,102019.63
2023-05-20T13:08:31.579Z,102021.84
2023-05-20T13:11:04.617Z,102033.09
2023-05-20T13:13:31.484Z,102035.13
2023-05-20T13:16:04.716Z,102027.22
2023-05-20T13:18:31.974Z,102008.88
2023-05-20T13:21:05.764Z,102016.66
2023-05-20T13:23:32.623Z,102015.03
2023-05-20T13:26:05.656Z,102007.06
2023-05-20T13:28:32.527Z,102012.44
2023-05-20T13:31:05.794Z,102010.06
2023-05-20T13:33:33.139Z,102007.91
2023-05-20T13:36:06.725Z,102001.44
2023-05-20T13:38:35.139Z,101995.09
2023-05-20T13:41:15.733Z,102018.06
2023-05-20T13:43:48.726Z,102014.34
2023-05-20T13:46:23.736Z,101998.50
2023-05-20T13:48:50.934Z,101998.88
2023-05-20T13:51:17.837Z,102015.09
2023-05-20T13:53:51.768Z,101993.44
2023-05-20T13:56:18.734Z,101999.47
2023-05-20T13:58:51.683Z,101994.22
2023-05-20T14:01:18.687Z,101987.81
2023-05-20T14:03:52.967Z,101989.31
2023-05-20T14:06:20.110Z,101997.50
2023-05-20T14:08:53.808Z,101984.06
2023-05-20T14:11:21.736Z,101975.59
2023-05-20T14:13:55.737Z,101989.31
2023-05-20T14:16:22.652Z,101982.00
2023-05-20T14:18:55.746Z,101982.69
2023-05-20T14:21:28.733Z,101971.31
2023-05-20T14:24:02.748Z,101982.16
2023-05-20T14:26:29.643Z,101978.31
2023-05-20T14:29:02.801Z,101978.72
2023-05-20T14:31:45.733Z,101976.38
2023-05-20T14:34:12.943Z,101971.41
2023-05-20T14:36:46.759Z,101968.88
2023-05-20T14:39:19.814Z,101967.41
2023-05-20T14:41:59.772Z,101971.25
2023-05-20T14:44:26.652Z,101956.03
2023-05-20T14:46:59.795Z,101963.16
2023-05-20T14:49:33.787Z,101952.97
2023-05-20T14:52:06.797Z,101960.03
2023-05-20T14:54:33.974Z,101954.28
2023-05-20T14:57:07.797Z,101967.75
2023-05-20T14:59:37.767Z,101966.03
2023-05-20T15:02:06.254Z,101958.63
2023-05-20T15:04:40.413Z,101968.44
2023-05-20T15:07:07.224Z,101957.53
2023-05-20T15:09:41.722Z,101950.94
2023-05-20T15:12:10.071Z,101957.34
2023-05-20T15:14:43.757Z,101955.06
2023-05-20T15:17:10.798Z,101962.78
2023-05-20T15:19:46.753Z,101949.84
2023-05-20T15:22:13.788Z,101946.72
2023-05-20T15:24:47.803Z,101960.13
2023-05-20T15:27:14.671Z,101957.19
2023-05-20T15:29:47.749Z,101964.16
2023-05-20T15:32:21.813Z,101958.03
2023-05-20T15:34:54.813Z,101946.06
2023-05-20T15:37:22.248Z,101938.91
2023-05-20T15:40:02.849Z,101941.09
2023-05-20T15:42:42.828Z,101940.91
2023-05-20T15:45:10.499Z,101936.75
2023-05-20T15:47:43.858Z,101921.34
2023-05-20T15:50:11.731Z,101926.41
2023-05-20T15:52:45.777Z,101932.25
2023-05-20T15:55:13.039Z,101914.09
2023-05-20T15:57:46.834Z,101914.94
2023-05-20T16:00:14.876Z,101915.13
2023-05-20T16:02:49.897Z,101906.03
2023-05-20T16:05:17.698Z,101908.84
2023-05-20T16:07:52.823Z,101901.50
2023-05-20T16:10:20.397Z,101902.72
2023-05-20T16:12:53.810Z,101900.34
2023-05-20T16:15:21.327Z,101885.22
2023-05-20T16:17:48.188Z,101888.06
2023-05-20T16:20:21.872Z,101909.38
2023-05-20T16:22:49.225Z,101900.00
2023-05-20T16:25:22.938Z,101905.84
2023-05-20T16:27:50.139Z,101886.91
2023-05-20T16:30:23.889Z,101891.78
2023-05-20T16:32:50.848Z,101909.72
2023-05-20T16:35:24.946Z,101897.09
2023-05-20T16:37:51.792Z,101903.59
2023-05-20T16:40:32.015Z,101907.56
2023-05-20T16:42:58.967Z,101912.88
2023-05-20T16:45:32.918Z,101914.25
2023-05-20T16:47:59.870Z,101899.28
2023-05-20T16:50:33.923Z,101911.72
2023-05-20T16:53:07.804Z,101904.06
2023-05-20T16:55:34.582Z,101900.16
2023-05-20T16:58:07.883Z,101906.28
2023-05-20T17:00:35.042Z,101897.59
2023-05-20T17:03:08.951Z,101906.66
2023-05-20T17:05:36.153Z,101913.91
2023-05-20T17:08:09.851Z,101905.56
2023-05-20T17:10:36.670Z,101906.81
2023-05-20T17:13:12.938Z,101903.03
2023-05-20T17:15:39.780Z,101895.00
2023-05-20T17:18:12.902Z,101909.50
2023-05-20T17:20:39.832Z,101886.09
2023-05-20T17:23:12.911Z,101900.81
2023-05-20T17:25:45.840Z,101902.44
2023-05-20T17:28:12.734Z,101882.81
2023-05-20T17:30:46.014Z,101876.16
2023-05-20T17:33:19.901Z,101898.88
2023-05-20T17:35:46.794Z,101900.31
2023-05-20T17:38:23.836Z,101911.53
2023-05-20T17:41:03.815Z,101906.06
2023-05-20T17:43:30.701Z,101915.00
2023-05-20T17:46:03.928Z,101909.06
2023-05-20T17:48:30.904Z,101919.47
2023-05-20T17:50:58.479Z,101910.25
2023-05-20T17:53:31.899Z,101921.50
2023-05-20T17:55:58.753Z,101920.41
2023-05-20T17:58:33.934Z,101921.56
2023-05-20T18:01:01.966Z,101936.19
2023-05-20T18:03:36.079Z,101914.47
2023-05-20T18:06:12.905Z,101928.53
2023-05-20T18:08:45.940Z,101930.09
2023-05-20T18:11:13.410Z,101935.34
2023-05-20T18:13:46.850Z,101918.56
2023-05-20T18:16:13.874Z,101930.06
2023-05-20T18:18:46.922Z,101919.56
2023-05-20T18:21:13.961Z,101925.53
2023-05-20T18:23:46.937Z,101920.97
2023-05-20T18:26:20.872Z,101925.81
2023-05-20T18:28:53.899Z,101933.59
2023-05-20T18:31:26.929Z,101931.47
2023-05-20T18:33:53.753Z,101938.09
2023-05-20T18:36:26.830Z,101934.84
2023-05-20T18:38:53.741Z,101927.75
2023-05-20T18:41:45.840Z,101930.88
2023-05-20T18:44:14.608Z,101933.72
2023-05-20T18:46:47.896Z,101929.72
2023-05-20T18:49:14.987Z,101922.63
2023-05-20T18:51:48.879Z,101934.25
2023-05-20T18:54:15.790Z,101927.44
2023-05-20T18:56:48.857Z,101922.63
2023-05-20T18:59:15.951Z,101924.47
2023-05-20T19:01:42.989Z,101916.91
2023-05-20T19:04:16.907Z,101922.00
2023-05-20T19:06:43.755Z,101913.50
2023-05-20T19:09:16.941Z,101916.72
2023-05-20T19:11:43.970Z,101920.97
2023-05-20T19:14:17.880Z,101914.56
2023-05-20T19:16:45.311Z,101925.31
2023-05-20T19:19:18.864Z,101918.75
2023-05-20T19:21:46.385Z,101924.53
2023-05-20T19:24:22.646Z,101913.44
2023-05-20T19:26:49.502Z,101920.09
2023-05-20T19:29:23.021Z,101908.56
2023-05-20T19:31:56.925Z,101927.84
2023-05-20T19:34:24.331Z,101925.13
2023-05-20T19:36:57.895Z,101925.50
2023-05-20T19:39:44.908Z,101928.84
2023-05-20T19:42:17.941Z,101927.81
2023-05-20T19:44:46.807Z,101934.56
2023-05-20T19:47:20.972Z,101927.31
2023-05-20T19:49:47.922Z,101918.75
2023-05-20T19:52:24.819Z,101938.06
2023-05-20T19:54:51.649Z,101942.44
2023-05-20T19:57:24.985Z,101934.88
2023-05-20T19:59:53.722Z,101934.66
2023-05-20T20:02:27.054Z,101941.00
2023-05-20T20:04:55.521Z,101935.03
2023-05-20T20:07:30.995Z,101927.38
2023-05-20T20:10:04.929Z,101939.44
2023-05-20T20:12:31.786Z,101947.09
2023-05-20T20:15:05.043Z,101917.97
2023-05-20T20:17:34.037Z,101941.72
2023-05-20T20:20:08.055Z,101917.44
2023-05-20T20:22:35.200Z,101930.66
2023-05-20T20:25:09.012Z,101945.00
2023-05-20T20:27:36.183Z,101926.09
2023-05-20T20:30:10.038Z,101926.81
2023-05-20T20:32:38.010Z,101930.25
2023-05-20T20:35:13.100Z,101898.72
2023-05-20T20:37:46.993Z,101925.63
2023-05-20T20:40:31.967Z,101910.69
2023-05-20T20:43:05.102Z,101904.25
2023-05-20T20:45:38.961Z,101910.56
2023-05-20T20:48:14.073Z,101925.19
2023-05-20T20:50:41.248Z,101923.34
2023-05-20T20:53:15.093Z,101893.66
2023-05-20T20:55:43.408Z,101891.56
2023-05-20T20:58:16.999Z,101900.44
2023-05-20T21:00:49.096Z,101892.88
2023-05-20T21:03:23.082Z,101923.88
2023-05-20T21:05:57.021Z,101899.84
2023-05-20T21:08:27.834Z,101925.81
2023-05-20T21:11:05.950Z,101913.28
2023-05-20T21:13:32.790Z,101921.84
2023-05-20T21:16:06.067Z,101921.84
2023-05-20T21:18:39.076Z,101920.84
2023-05-20T21:21:16.966Z,101909.00
2023-05-20T21:23:50.041Z,101917.69
2023-05-20T21:26:22.938Z,101926.50
2023-05-20T21:28:50.008Z,101919.66
2023-05-20T21:31:24.066Z,101922.34
2023-05-20T21:33:51.010Z,101904.53
2023-05-20T21:36:24.071Z,101901.13
2023-05-20T21:38:53.895Z,101903.81
2023-05-20T21:41:34.049Z,101903.81
2023-05-20T21:44:00.908Z,101915.88
2023-05-20T21:46:34.107Z,101919.41
2023-05-20T21:49:07.027Z,101908.91
2023-05-20T21:51:34.036Z,101867.47
2023-05-20T21:54:06.972Z,101880.25
2023-05-20T21:56:36.618Z,101888.91
2023-05-20T21:59:10.047Z,101887.22
2023-05-20T22:01:40.525Z,101883.53
2023-05-20T22:04:14.086Z,101870.75
2023-05-20T22:06:41.335Z,101871.34
2023-05-20T22:09:15.135Z,101889.50
2023-05-20T22:11:45.333Z,101888.53
2023-05-20T22:14:23.035Z,101863.81
2023-05-20T22:16:50.042Z,101855.28
2023-05-20T22:19:25.257Z,101874.88
2023-05-20T22:21:52.478Z,101873.19
2023-05-20T22:24:19.880Z,101869.19
2023-05-20T22:26:53.071Z,101856.38
2023-05-20T22:29:19.994Z,101841.50
2023-05-20T22:31:53.222Z,101869.91
2023-05-20T22:34:20.152Z,101860.66
2023-05-20T22:36:49.301Z,101867.22
2023-05-20T22:39:23.026Z,101851.59
2023-05-20T22:41:58.223Z,101847.47
2023-05-20T22:44:34.136Z,101844.66
2023-05-20T22:47:01.043Z,101849.19
2023-05-20T22:49:35.090Z,101842.81
2023-05-20T22:52:08.053Z,101844.66
2023-05-20T22:54:35.311Z,101826.66
2023-05-20T22:57:09.058Z,101830.88
2023-05-20T22:59:36.873Z,101822.50
2023-05-20T23:02:11.058Z,101821.63
2023-05-20T23:04:37.955Z,101824.78
2023-05-20T23:07:12.129Z,101808.47
2023-05-20T23:09:39.090Z,101808.47
2023-05-20T23:12:16.077Z,101819.81
2023-05-20T23:14:42.959Z,101802.06
2023-05-20T23:17:16.109Z,101808.75
2023-05-20T23:19:43.248Z,101808.13
2023-05-20T23:22:10.258Z,101806.28
2023-05-20T23:24:44.331Z,101810.31
2023-05-20T23:27:11.549Z,101776.09
2023-05-20T23:29:45.145Z,101794.22
2023-05-20T23:32:19.126Z,101808.47
2023-05-20T23:34:53.170Z,101790.59
2023-05-20T23:37:20.434Z,101804.47
2023-05-20T23:39:54.132Z,101790.22
2023-05-20T23:42:28.133Z,101784.16
2023-05-20T23:45:01.086Z,101788.06
2023-05-20T23:47:37.229Z,101800.94
2023-05-20T23:50:12.800Z,101793.44
2023-05-20T23:52:40.569Z,101779.91
2023-05-20T23:55:16.132Z,101790.88
2023-05-20T23:57:43.198Z,101779.19
